This is the latest recevied weather packets stored in our database for station/object K7AZM. If no packets are shown the sender has not sent any weather packets the latest 10 day(s).
| Time | Temp. | Humidity | Pressure | Rain* | Wind** | Luminosity | Snow |
|---|---|---|---|---|---|---|---|
| 1777394722 | 23.33° C | 23% | 1018.8 hPa | 0 mm | - | - | - |
| 1777390522 | 21.11° C | 26% | 1018.6 hPa | 0 mm | - | - | - |
| 1777388722 | 20.56° C | 26% | 1018.5 hPa | 0 mm | - | - | - |
| 1777384822 | 14.44° C | 37% | 1017.4 hPa | 0 mm | - | - | - |
| 1777384224 | 13.33° C | 38% | 1017.3 hPa | 0 mm | - | - | - |
| 1777383321 | 12.78° C | 38% | 1017.2 hPa | 0 mm | - | - | - |
| 1777382442 | 12.22° C | 39% | 1016.9 hPa | 0 mm | - | - | - |
| 1777382123 | 12.22° C | 40% | 1016.7 hPa | 0 mm | - | - | - |
| 1777381221 | 11.11° C | 41% | 1016.3 hPa | 0 mm | - | - | - |
| 1777380043 | 11.67° C | 40% | 1016.1 hPa | 0 mm | - | - | - |
| 1777379722 | 11.67° C | 40% | 1015.9 hPa | 0 mm | - | - | - |
| 1777379421 | 11.67° C | 40% | 1016 hPa | 0 mm | - | - | - |
| 1777378522 | 11.67° C | 40% | 1015.8 hPa | 0 mm | - | - | - |
| 1777378222 | 11.67° C | 40% | 1015.8 hPa | 0 mm | - | - | - |
| 1777377021 | 11.67° C | 39% | 1015.6 hPa | 0 mm | - | - | - |
| 1777376721 | 11.67° C | 39% | 1015.5 hPa | 0 mm | - | - | - |
| 1777374922 | 11.67° C | 38% | 1015.4 hPa | 0 mm | - | - | - |
| 1777374321 | 12.22° C | 38% | 1015.4 hPa | 0 mm | - | - | - |
| 1777374022 | 12.22° C | 37% | 1015.4 hPa | 0 mm | - | - | - |
| 1777373423 | 12.22° C | 37% | 1015.5 hPa | 0 mm | - | - | - |
| 1777371022 | 13.33° C | 38% | 1015.5 hPa | 0 mm | - | - | - |
| 1777370122 | 13.33° C | 38% | 1015.2 hPa | 0 mm | - | - | - |
| 1777368342 | 14.44° C | 35% | 1015.5 hPa | 0 mm | - | - | - |
| 1777365922 | 15° C | 34% | 1015.5 hPa | 0 mm | - | - | - |
| 1777365322 | 15° C | 34% | 1015.5 hPa | 0 mm | - | - | - |
* Rain latest hour (hover to see other rain measurements)
** Current wind speed in m/s (hover to see current wind gust speed)